sensor_id;sensor_type;location;lat;lon;timestamp;pressure;altitude;pressure_sealevel;temperature;humidity
70206;BME280;57593;55.896;37.396;2022-11-20T00:00:01;99446.56;;;-1.36;100.00
70206;BME280;57593;55.896;37.396;2022-11-20T00:00:37;99436.97;;;-1.36;100.00
70206;BME280;57593;55.896;37.396;2022-11-20T00:01:16;99442.22;;;-1.25;100.00
70206;BME280;57593;55.896;37.396;2022-11-20T00:01:47;99440.66;;;-1.27;100.00
70206;BME280;57593;55.896;37.396;2022-11-20T00:02:18;99444.78;;;-1.31;100.00
70206;BME280;57593;55.896;37.396;2022-11-20T00:02:48;99435.69;;;-1.33;100.00
70206;BME280;57593;55.896;37.396;2022-11-20T00:03:19;99442.44;;;-1.32;100.00
70206;BME280;57593;55.896;37.396;2022-11-20T00:03:51;99442.50;;;-1.22;100.00
70206;BME280;57593;55.896;37.396;2022-11-20T00:04:23;99437.22;;;-1.37;100.00
70206;BME280;57593;55.896;37.396;2022-11-20T00:04:53;99441.34;;;-1.41;100.00
70206;BME280;57593;55.896;37.396;2022-11-20T00:05:24;99440.50;;;-1.47;100.00
70206;BME280;57593;55.896;37.396;2022-11-20T00:05:59;99443.44;;;-1.38;100.00
70206;BME280;57593;55.896;37.396;2022-11-20T00:06:30;99443.19;;;-1.37;100.00
70206;BME280;57593;55.896;37.396;2022-11-20T00:07:01;99446.28;;;-1.40;100.00
70206;BME280;57593;55.896;37.396;2022-11-20T00:07:31;99442.50;;;-1.59;100.00
70206;BME280;57593;55.896;37.396;2022-11-20T00:08:02;99450.53;;;-1.56;100.00
70206;BME280;57593;55.896;37.396;2022-11-20T00:08:33;99443.00;;;-1.57;100.00
70206;BME280;57593;55.896;37.396;2022-11-20T00:09:03;99443.47;;;-1.33;100.00
70206;BME280;57593;55.896;37.396;2022-11-20T00:09:35;99441.16;;;-1.30;100.00
70206;BME280;57593;55.896;37.396;2022-11-20T00:10:06;99444.78;;;-1.31;100.00
70206;BME280;57593;55.896;37.396;2022-11-20T00:10:38;99436.06;;;-1.52;100.00
70206;BME280;57593;55.896;37.396;2022-11-20T00:11:15;99445.47;;;-1.40;100.00
70206;BME280;57593;55.896;37.396;2022-11-20T00:11:46;99454.56;;;-1.38;100.00
70206;BME280;57593;55.896;37.396;2022-11-20T00:12:17;99449.97;;;-1.31;100.00
70206;BME280;57593;55.896;37.396;2022-11-20T00:12:47;99454.34;;;-1.31;100.00
70206;BME280;57593;55.896;37.396;2022-11-20T00:13:18;99446.78;;;-1.43;100.00
70206;BME280;57593;55.896;37.396;2022-11-20T00:13:51;99448.28;;;-1.47;100.00
70206;BME280;57593;55.896;37.396;2022-11-20T00:14:22;99452.47;;;-1.41;100.00
70206;BME280;57593;55.896;37.396;2022-11-20T00:14:52;99440.53;;;-1.42;100.00
70206;BME280;57593;55.896;37.396;2022-11-20T00:15:23;99454.06;;;-1.35;100.00
70206;BME280;57593;55.896;37.396;2022-11-20T00:15:58;99458.69;;;-1.42;100.00
70206;BME280;57593;55.896;37.396;2022-11-20T00:16:31;99443.63;;;-1.45;100.00
70206;BME280;57593;55.896;37.396;2022-11-20T00:17:02;99455.72;;;-1.56;100.00
70206;BME280;57593;55.896;37.396;2022-11-20T00:17:33;99446.91;;;-1.60;100.00
70206;BME280;57593;55.896;37.396;2022-11-20T00:18:03;99455.47;;;-1.54;100.00
70206;BME280;57593;55.896;37.396;2022-11-20T00:18:34;99455.28;;;-1.48;100.00
70206;BME280;57593;55.896;37.396;2022-11-20T00:19:05;99458.19;;;-1.39;100.00
70206;BME280;57593;55.896;37.396;2022-11-20T00:19:36;99451.97;;;-1.38;100.00
70206;BME280;57593;55.896;37.396;2022-11-20T00:20:07;99457.69;;;-1.36;100.00
70206;BME280;57593;55.896;37.396;2022-11-20T00:20:38;99452.00;;;-1.33;100.00
70206;BME280;57593;55.896;37.396;2022-11-20T00:21:13;99440.00;;;-1.49;100.00
70206;BME280;57593;55.896;37.396;2022-11-20T00:21:44;99447.22;;;-1.51;100.00
70206;BME280;57593;55.896;37.396;2022-11-20T00:22:15;99447.94;;;-1.56;100.00
70206;BME280;57593;55.896;37.396;2022-11-20T00:22:46;99445.88;;;-1.59;100.00
70206;BME280;57593;55.896;37.396;2022-11-20T00:23:16;99447.44;;;-1.53;100.00
70206;BME280;57593;55.896;37.396;2022-11-20T00:23:47;99443.94;;;-1.41;100.00
70206;BME280;57593;55.896;37.396;2022-11-20T00:24:18;99450.66;;;-1.40;100.00
70206;BME280;57593;55.896;37.396;2022-11-20T00:24:49;99457.31;;;-1.50;100.00
70206;BME280;57593;55.896;37.396;2022-11-20T00:25:20;99455.81;;;-1.46;100.00
70206;BME280;57593;55.896;37.396;2022-11-20T00:25:50;99452.97;;;-1.44;100.00
70206;BME280;57593;55.896;37.396;2022-11-20T00:26:22;99455.59;;;-1.39;100.00
70206;BME280;57593;55.896;37.396;2022-11-20T00:26:53;99456.34;;;-1.43;100.00
70206;BME280;57593;55.896;37.396;2022-11-20T00:27:24;99451.22;;;-1.38;100.00
70206;BME280;57593;55.896;37.396;2022-11-20T00:27:54;99443.34;;;-1.49;100.00
70206;BME280;57593;55.896;37.396;2022-11-20T00:28:25;99454.72;;;-1.50;100.00
70206;BME280;57593;55.896;37.396;2022-11-20T00:28:58;99452.72;;;-1.42;100.00
70206;BME280;57593;55.896;37.396;2022-11-20T00:29:29;99460.53;;;-1.37;100.00
70206;BME280;57593;55.896;37.396;2022-11-20T00:29:59;99454.47;;;-1.48;100.00
70206;BME280;57593;55.896;37.396;2022-11-20T00:30:30;99448.31;;;-1.42;100.00
70206;BME280;57593;55.896;37.396;2022-11-20T00:31:02;99444.97;;;-1.37;100.00
70206;BME280;57593;55.896;37.396;2022-11-20T00:31:34;99450.41;;;-1.39;100.00
70206;BME280;57593;55.896;37.396;2022-11-20T00:32:05;99451.00;;;-1.32;100.00
70206;BME280;57593;55.896;37.396;2022-11-20T00:32:36;99439.59;;;-1.31;100.00
70206;BME280;57593;55.896;37.396;2022-11-20T00:33:06;99447.81;;;-1.39;100.00
70206;BME280;57593;55.896;37.396;2022-11-20T00:33:37;99446.81;;;-1.38;100.00
70206;BME280;57593;55.896;37.396;2022-11-20T00:34:09;99449.41;;;-1.33;100.00
70206;BME280;57593;55.896;37.396;2022-11-20T00:34:40;99446.06;;;-1.33;100.00
70206;BME280;57593;55.896;37.396;2022-11-20T00:35:10;99445.44;;;-1.46;100.00
70206;BME280;57593;55.896;37.396;2022-11-20T00:35:41;99451.47;;;-1.40;100.00
70206;BME280;57593;55.896;37.396;2022-11-20T00:36:14;99447.53;;;-1.42;100.00
70206;BME280;57593;55.896;37.396;2022-11-20T00:36:45;99441.66;;;-1.33;100.00
70206;BME280;57593;55.896;37.396;2022-11-20T00:37:16;99444.03;;;-1.26;100.00
70206;BME280;57593;55.896;37.396;2022-11-20T00:37:46;99445.88;;;-1.21;100.00
70206;BME280;57593;55.896;37.396;2022-11-20T00:38:17;99441.19;;;-1.24;100.00
70206;BME280;57593;55.896;37.396;2022-11-20T00:38:51;99450.50;;;-1.29;100.00
70206;BME280;57593;55.896;37.396;2022-11-20T00:39:22;99443.25;;;-1.27;100.00
70206;BME280;57593;55.896;37.396;2022-11-20T00:39:53;99447.19;;;-1.19;100.00
70206;BME280;57593;55.896;37.396;2022-11-20T00:40:24;99443.06;;;-1.20;100.00
70206;BME280;57593;55.896;37.396;2022-11-20T00:40:58;99446.13;;;-1.23;100.00
70206;BME280;57593;55.896;37.396;2022-11-20T00:41:29;99448.19;;;-1.25;100.00
70206;BME280;57593;55.896;37.396;2022-11-20T00:42:00;99446.66;;;-1.21;100.00
70206;BME280;57593;55.896;37.396;2022-11-20T00:42:31;99444.81;;;-1.25;100.00
70206;BME280;57593;55.896;37.396;2022-11-20T00:43:03;99435.69;;;-1.33;100.00
70206;BME280;57593;55.896;37.396;2022-11-20T00:43:34;99439.84;;;-1.32;100.00
70206;BME280;57593;55.896;37.396;2022-11-20T00:44:05;99435.19;;;-1.30;100.00
70206;BME280;57593;55.896;37.396;2022-11-20T00:44:35;99437.88;;;-1.20;100.00
70206;BME280;57593;55.896;37.396;2022-11-20T00:45:06;99446.41;;;-1.19;100.00
70206;BME280;57593;55.896;37.396;2022-11-20T00:45:37;99443.06;;;-1.20;100.00
70206;BME280;57593;55.896;37.396;2022-11-20T00:46:15;99442.00;;;-1.19;100.00
70206;BME280;57593;55.896;37.396;2022-11-20T00:46:46;99434.97;;;-1.23;100.00
70206;BME280;57593;55.896;37.396;2022-11-20T00:47:16;99438.38;;;-1.23;100.00
70206;BME280;57593;55.896;37.396;2022-11-20T00:47:47;99442.88;;;-1.40;100.00
70206;BME280;57593;55.896;37.396;2022-11-20T00:48:18;99437.25;;;-1.32;100.00
70206;BME280;57593;55.896;37.396;2022-11-20T00:48:48;99437.53;;;-1.29;100.00
70206;BME280;57593;55.896;37.396;2022-11-20T00:49:19;99440.91;;;-1.28;100.00
70206;BME280;57593;55.896;37.396;2022-11-20T00:49:50;99434.94;;;-1.29;100.00
70206;BME280;57593;55.896;37.396;2022-11-20T00:50:20;99440.84;;;-1.38;100.00
70206;BME280;57593;55.896;37.396;2022-11-20T00:50:51;99445.28;;;-1.34;100.00
70206;BME280;57593;55.896;37.396;2022-11-20T00:51:24;99446.53;;;-1.41;100.00
70206;BME280;57593;55.896;37.396;2022-11-20T00:51:55;99442.63;;;-1.39;100.00
70206;BME280;57593;55.896;37.396;2022-11-20T00:52:26;99442.19;;;-1.31;100.00
70206;BME280;57593;55.896;37.396;2022-11-20T00:52:56;99432.84;;;-1.32;100.00
70206;BME280;57593;55.896;37.396;2022-11-20T00:53:27;99438.56;;;-1.30;100.00
70206;BME280;57593;55.896;37.396;2022-11-20T00:53:58;99440.38;;;-1.30;100.00
70206;BME280;57593;55.896;37.396;2022-11-20T00:54:30;99441.41;;;-1.31;100.00
70206;BME280;57593;55.896;37.396;2022-11-20T00:55:00;99448.91;;;-1.35;100.00
70206;BME280;57593;55.896;37.396;2022-11-20T00:55:31;99454.09;;;-1.30;100.00
70206;BME280;57593;55.896;37.396;2022-11-20T00:56:06;99438.88;;;-1.26;100.00
70206;BME280;57593;55.896;37.396;2022-11-20T00:56:37;99442.44;;;-1.32;100.00
70206;BME280;57593;55.896;37.396;2022-11-20T00:57:08;99440.72;;;-1.21;100.00
70206;BME280;57593;55.896;37.396;2022-11-20T00:57:38;99433.63;;;-1.31;100.00
70206;BME280;57593;55.896;37.396;2022-11-20T00:58:09;99442.38;;;-1.37;100.00
70206;BME280;57593;55.896;37.396;2022-11-20T00:58:42;99440.91;;;-1.28;100.00
70206;BME280;57593;55.896;37.396;2022-11-20T00:59:13;99443.75;;;-1.30;100.00
70206;BME280;57593;55.896;37.396;2022-11-20T00:59:43;99432.59;;;-1.35;100.00
70206;BME280;57593;55.896;37.396;2022-11-20T01:00:15;99445.34;;;-1.23;100.00
70206;BME280;57593;55.896;37.396;2022-11-20T01:00:45;99437.06;;;-1.20;100.00
70206;BME280;57593;55.896;37.396;2022-11-20T01:01:19;99446.19;;;-1.13;100.00
70206;BME280;57593;55.896;37.396;2022-11-20T01:01:50;99443.06;;;-1.20;100.00
70206;BME280;57593;55.896;37.396;2022-11-20T01:02:20;99451.88;;;-1.16;100.00
70206;BME280;57593;55.896;37.396;2022-11-20T01:02:51;99445.63;;;-1.20;100.00
70206;BME280;57593;55.896;37.396;2022-11-20T01:03:22;99439.38;;;-1.24;100.00
70206;BME280;57593;55.896;37.396;2022-11-20T01:03:55;99441.13;;;-1.35;100.00
70206;BME280;57593;55.896;37.396;2022-11-20T01:04:26;99440.13;;;-1.29;100.00
70206;BME280;57593;55.896;37.396;2022-11-20T01:04:57;99436.03;;;-1.24;100.00
70206;BME280;57593;55.896;37.396;2022-11-20T01:05:27;99438.06;;;-1.27;100.00
70206;BME280;57593;55.896;37.396;2022-11-20T01:06:03;99441.50;;;-1.16;100.00
70206;BME280;57593;55.896;37.396;2022-11-20T01:06:37;99440.91;;;-1.28;100.00
70206;BME280;57593;55.896;37.396;2022-11-20T01:07:08;99439.13;;;-1.22;100.00
70206;BME280;57593;55.896;37.396;2022-11-20T01:07:39;99437.88;;;-1.20;100.00
70206;BME280;57593;55.896;37.396;2022-11-20T01:08:09;99432.69;;;-1.20;100.00
70206;BME280;57593;55.896;37.396;2022-11-20T01:08:41;99436.44;;;-1.38;100.00
70206;BME280;57593;55.896;37.396;2022-11-20T01:09:13;99436.16;;;-1.41;100.00
70206;BME280;57593;55.896;37.396;2022-11-20T01:09:44;99435.16;;;-1.35;100.00
70206;BME280;57593;55.896;37.396;2022-11-20T01:10:15;99436.97;;;-1.36;100.00
70206;BME280;57593;55.896;37.396;2022-11-20T01:10:45;99442.38;;;-1.37;100.00
70206;BME280;57593;55.896;37.396;2022-11-20T01:11:18;99436.22;;;-1.31;100.00
70206;BME280;57593;55.896;37.396;2022-11-20T01:11:49;99435.59;;;-1.43;100.00
70206;BME280;57593;55.896;37.396;2022-11-20T01:12:20;99434.13;;;-1.34;100.00
70206;BME280;57593;55.896;37.396;2022-11-20T01:12:50;99441.28;;;-1.47;100.00
70206;BME280;57593;55.896;37.396;2022-11-20T01:13:41;99436.72;;;-1.34;100.00
70206;BME280;57593;55.896;37.396;2022-11-20T01:14:17;99437.91;;;-1.52;100.00
70206;BME280;57593;55.896;37.396;2022-11-20T01:14:48;99437.94;;;-1.42;100.00
70206;BME280;57593;55.896;37.396;2022-11-20T01:15:19;99434.09;;;-1.39;100.00
70206;BME280;57593;55.896;37.396;2022-11-20T01:15:50;99434.34;;;-1.41;100.00
70206;BME280;57593;55.896;37.396;2022-11-20T01:16:54;99441.88;;;-1.39;100.00
70206;BME280;57593;55.896;37.396;2022-11-20T01:17:25;99444.50;;;-1.34;100.00
70206;BME280;57593;55.896;37.396;2022-11-20T01:17:55;99439.84;;;-1.32;100.00
70206;BME280;57593;55.896;37.396;2022-11-20T01:18:26;99435.44;;;-1.32;100.00
70206;BME280;57593;55.896;37.396;2022-11-20T01:18:58;99439.06;;;-1.33;100.00
70206;BME280;57593;55.896;37.396;2022-11-20T01:19:30;99433.88;;;-1.33;100.00
70206;BME280;57593;55.896;37.396;2022-11-20T01:20:00;99438.63;;;-1.24;100.00
70206;BME280;57593;55.896;37.396;2022-11-20T01:20:34;99434.66;;;-1.32;100.00
70206;BME280;57593;55.896;37.396;2022-11-20T01:21:14;99434.19;;;-1.29;100.00
70206;BME280;57593;55.896;37.396;2022-11-20T01:21:48;99444.97;;;-1.37;100.00
70206;BME280;57593;55.896;37.396;2022-11-20T01:22:19;99437.19;;;-1.42;100.00
70206;BME280;57593;55.896;37.396;2022-11-20T01:22:49;99442.38;;;-1.37;100.00
70206;BME280;57593;55.896;37.396;2022-11-20T01:23:20;99436.09;;;-1.47;100.00
70206;BME280;57593;55.896;37.396;2022-11-20T01:23:51;99437.44;;;-1.44;100.00
70206;BME280;57593;55.896;37.396;2022-11-20T01:24:22;99437.84;;;-1.57;100.00
70206;BME280;57593;55.896;37.396;2022-11-20T01:24:53;99431.75;;;-1.41;100.00
70206;BME280;57593;55.896;37.396;2022-11-20T01:25:23;99429.94;;;-1.40;100.00
70206;BME280;57593;55.896;37.396;2022-11-20T01:25:54;99432.09;;;-1.32;100.00
70206;BME280;57593;55.896;37.396;2022-11-20T01:26:30;99436.22;;;-1.31;100.00
70206;BME280;57593;55.896;37.396;2022-11-20T01:27:01;99435.31;;;-1.52;100.00
70206;BME280;57593;55.896;37.396;2022-11-20T01:27:32;99438.69;;;-1.47;100.00
70206;BME280;57593;55.896;37.396;2022-11-20T01:28:02;99440.78;;;-1.43;100.00
70206;BME280;57593;55.896;37.396;2022-11-20T01:28:33;99440.72;;;-1.54;100.00
70206;BME280;57593;55.896;37.396;2022-11-20T01:29:05;99438.66;;;-1.52;100.00
70206;BME280;57593;55.896;37.396;2022-11-20T01:29:37;99435.75;;;-1.60;100.00
70206;BME280;57593;55.896;37.396;2022-11-20T01:30:08;99439.94;;;-1.54;100.00
70206;BME280;57593;55.896;37.396;2022-11-20T01:30:38;99440.78;;;-1.43;100.00
70206;BME280;57593;55.896;37.396;2022-11-20T01:31:37;99441.47;;;-1.58;100.00
70206;BME280;57593;55.896;37.396;2022-11-20T01:32:07;99437.00;;;-1.68;100.00
70206;BME280;57593;55.896;37.396;2022-11-20T01:32:38;99430.03;;;-1.63;100.00
70206;BME280;57593;55.896;37.396;2022-11-20T01:33:08;99439.38;;;-1.61;100.00
70206;BME280;57593;55.896;37.396;2022-11-20T01:33:39;99445.03;;;-1.65;100.00
70206;BME280;57593;55.896;37.396;2022-11-20T01:34:16;99436.63;;;-1.82;100.00
70206;BME280;57593;55.896;37.396;2022-11-20T01:34:47;99438.25;;;-1.71;100.00
70206;BME280;57593;55.896;37.396;2022-11-20T01:35:18;99441.56;;;-1.81;100.00
70206;BME280;57593;55.896;37.396;2022-11-20T01:35:48;99437.91;;;-1.79;100.00
70206;BME280;57593;55.896;37.396;2022-11-20T01:36:21;99440.75;;;-1.81;100.00
70206;BME280;57593;55.896;37.396;2022-11-20T01:36:52;99439.53;;;-1.73;100.00
70206;BME280;57593;55.896;37.396;2022-11-20T01:37:23;99441.19;;;-1.62;100.00
70206;BME280;57593;55.896;37.396;2022-11-20T01:37:54;99444.84;;;-1.58;100.00
70206;BME280;57593;55.896;37.396;2022-11-20T01:38:25;99433.47;;;-1.52;100.00
70206;BME280;57593;55.896;37.396;2022-11-20T01:38:58;99444.94;;;-1.42;100.00
70206;BME280;57593;55.896;37.396;2022-11-20T01:39:28;99442.28;;;-1.53;100.00
70206;BME280;57593;55.896;37.396;2022-11-20T01:39:59;99442.00;;;-1.56;100.00
70206;BME280;57593;55.896;37.396;2022-11-20T01:40:29;99443.78;;;-1.62;100.00
70206;BME280;57593;55.896;37.396;2022-11-20T01:41:00;99447.94;;;-1.56;100.00
70206;BME280;57593;55.896;37.396;2022-11-20T01:41:33;99440.69;;;-1.59;100.00
70206;BME280;57593;55.896;37.396;2022-11-20T01:42:22;99434.97;;;-1.61;100.00
70206;BME280;57593;55.896;37.396;2022-11-20T01:43:16;99445.91;;;-1.54;100.00
70206;BME280;57593;55.896;37.396;2022-11-20T01:43:52;99441.72;;;-1.60;100.00
70206;BME280;57593;55.896;37.396;2022-11-20T01:44:56;99438.09;;;-1.59;100.00
70206;BME280;57593;55.896;37.396;2022-11-20T01:45:56;99439.28;;;-1.72;100.00
70206;BME280;57593;55.896;37.396;2022-11-20T01:46:27;99437.16;;;-1.80;100.00
70206;BME280;57593;55.896;37.396;2022-11-20T01:47:02;99441.78;;;-1.82;100.00
70206;BME280;57593;55.896;37.396;2022-11-20T01:47:42;99447.78;;;-1.76;100.00
70206;BME280;57593;55.896;37.396;2022-11-20T01:48:15;99441.63;;;-1.70;100.00
70206;BME280;57593;55.896;37.396;2022-11-20T01:50:09;99441.97;;;-1.61;100.00
70206;BME280;57593;55.896;37.396;2022-11-20T01:50:42;99446.13;;;-1.60;100.00
70206;BME280;57593;55.896;37.396;2022-11-20T01:51:30;99456.97;;;-1.64;100.00
70206;BME280;57593;55.896;37.396;2022-11-20T01:52:12;99453.66;;;-1.59;100.00
70206;BME280;57593;55.896;37.396;2022-11-20T01:52:58;99455.94;;;-1.63;100.00
70206;BME280;57593;55.896;37.396;2022-11-20T01:53:32;99449.16;;;-1.69;100.00
70206;BME280;57593;55.896;37.396;2022-11-20T01:54:09;99458.25;;;-1.66;100.00
70206;BME280;57593;55.896;37.396;2022-11-20T01:55:33;99457.22;;;-1.65;100.00
70206;BME280;57593;55.896;37.396;2022-11-20T01:56:07;99460.59;;;-1.65;100.00
70206;BME280;57593;55.896;37.396;2022-11-20T01:56:42;99451.97;;;-1.70;100.00
70206;BME280;57593;55.896;37.396;2022-11-20T01:57:15;99464.19;;;-1.66;100.00
70206;BME280;57593;55.896;37.396;2022-11-20T01:57:48;99462.25;;;-1.81;100.00
70206;BME280;57593;55.896;37.396;2022-11-20T01:58:22;99470.94;;;-1.92;100.00
70206;BME280;57593;55.896;37.396;2022-11-20T01:58:58;99467.94;;;-1.84;100.00
70206;BME280;57593;55.896;37.396;2022-11-20T01:59:31;99459.84;;;-1.87;100.00
70206;BME280;57593;55.896;37.396;2022-11-20T02:00:10;99467.44;;;-1.81;100.00
70206;BME280;57593;55.896;37.396;2022-11-20T02:00:44;99462.03;;;-1.79;100.00
70206;BME280;57593;55.896;37.396;2022-11-20T02:01:15;99461.53;;;-1.76;100.00
70206;BME280;57593;55.896;37.396;2022-11-20T02:01:45;99467.47;;;-1.75;100.00
70206;BME280;57593;55.896;37.396;2022-11-20T02:02:16;99470.56;;;-1.78;100.00
70206;BME280;57593;55.896;37.396;2022-11-20T02:03:16;99458.38;;;-1.78;100.00
70206;BME280;57593;55.896;37.396;2022-11-20T02:03:49;99463.03;;;-1.80;100.00
70206;BME280;57593;55.896;37.396;2022-11-20T02:04:22;99470.56;;;-1.78;100.00
70206;BME280;57593;55.896;37.396;2022-11-20T02:04:56;99469.31;;;-1.76;100.00
70206;BME280;57593;55.896;37.396;2022-11-20T02:06:23;99466.41;;;-1.79;100.00
70206;BME280;57593;55.896;37.396;2022-11-20T02:07:00;99472.50;;;-1.91;100.00
70206;BME280;57593;55.896;37.396;2022-11-20T02:07:31;99469.94;;;-1.91;100.00
70206;BME280;57593;55.896;37.396;2022-11-20T02:08:03;99471.81;;;-1.81;100.00
70206;BME280;57593;55.896;37.396;2022-11-20T02:08:36;99475.63;;;-1.89;100.00
70206;BME280;57593;55.896;37.396;2022-11-20T02:09:07;99475.69;;;-1.84;100.00
70206;BME280;57593;55.896;37.396;2022-11-20T02:09:37;99484.25;;;-1.83;100.00
70206;BME280;57593;55.896;37.396;2022-11-20T02:10:08;99477.31;;;-1.77;100.00
70206;BME280;57593;55.896;37.396;2022-11-20T02:10:38;99474.72;;;-1.77;100.00
70206;BME280;57593;55.896;37.396;2022-11-20T02:11:09;99472.41;;;-1.74;100.00
70206;BME280;57593;55.896;37.396;2022-11-20T02:11:40;99475.50;;;-1.77;100.00
70206;BME280;57593;55.896;37.396;2022-11-20T02:12:11;99465.13;;;-1.77;100.00
70206;BME280;57593;55.896;37.396;2022-11-20T02:13:01;99474.00;;;-1.73;100.00
70206;BME280;57593;55.896;37.396;2022-11-20T02:13:51;99479.47;;;-1.64;100.00
70206;BME280;57593;55.896;37.396;2022-11-20T02:14:22;99475.63;;;-1.61;100.00
70206;BME280;57593;55.896;37.396;2022-11-20T02:14:53;99473.69;;;-1.76;100.00
70206;BME280;57593;55.896;37.396;2022-11-20T02:15:24;99479.97;;;-1.67;100.00
70206;BME280;57593;55.896;37.396;2022-11-20T02:15:54;99477.06;;;-1.76;100.00
70206;BME280;57593;55.896;37.396;2022-11-20T02:16:34;99478.69;;;-1.70;100.00
70206;BME280;57593;55.896;37.396;2022-11-20T02:17:05;99471.16;;;-1.71;100.00
70206;BME280;57593;55.896;37.396;2022-11-20T02:17:36;99469.78;;;-1.79;100.00
70206;BME280;57593;55.896;37.396;2022-11-20T02:18:07;99475.47;;;-1.82;100.00
70206;BME280;57593;55.896;37.396;2022-11-20T02:18:40;99480.72;;;-1.72;100.00
70206;BME280;57593;55.896;37.396;2022-11-20T02:19:32;99486.69;;;-1.71;100.00
70206;BME280;57593;55.896;37.396;2022-11-20T02:20:02;99480.88;;;-1.84;100.00
70206;BME280;57593;55.896;37.396;2022-11-20T02:20:34;99480.56;;;-1.87;100.00
70206;BME280;57593;55.896;37.396;2022-11-20T02:22:21;99481.53;;;-1.93;100.00
70206;BME280;57593;55.896;37.396;2022-11-20T02:23:04;99488.50;;;-1.99;100.00
70206;BME280;57593;55.896;37.396;2022-11-20T02:24:26;99487.03;;;-1.90;100.00
70206;BME280;57593;55.896;37.396;2022-11-20T02:24:58;99487.59;;;-1.83;100.00
70206;BME280;57593;55.896;37.396;2022-11-20T02:25:32;99483.47;;;-1.84;100.00
70206;BME280;57593;55.896;37.396;2022-11-20T02:26:09;99485.81;;;-1.82;100.00
70206;BME280;57593;55.896;37.396;2022-11-20T02:26:57;99493.03;;;-1.84;100.00
70206;BME280;57593;55.896;37.396;2022-11-20T02:27:29;99485.47;;;-1.91;100.00
70206;BME280;57593;55.896;37.396;2022-11-20T02:28:00;99480.31;;;-1.86;100.00
70206;BME280;57593;55.896;37.396;2022-11-20T02:28:31;99484.47;;;-1.85;100.00
70206;BME280;57593;55.896;37.396;2022-11-20T02:29:02;99497.97;;;-1.83;100.00
70206;BME280;57593;55.896;37.396;2022-11-20T02:29:35;99489.69;;;-1.79;100.00
70206;BME280;57593;55.896;37.396;2022-11-20T02:30:08;99494.88;;;-1.79;100.00
70206;BME280;57593;55.896;37.396;2022-11-20T02:30:41;99498.81;;;-1.77;100.00
70206;BME280;57593;55.896;37.396;2022-11-20T02:31:11;99492.25;;;-1.85;100.00
70206;BME280;57593;55.896;37.396;2022-11-20T02:31:43;99488.19;;;-1.75;100.00
70206;BME280;57593;55.896;37.396;2022-11-20T02:32:21;99488.47;;;-1.72;100.00
70206;BME280;57593;55.896;37.396;2022-11-20T02:32:52;99488.72;;;-1.73;100.00
70206;BME280;57593;55.896;37.396;2022-11-20T02:33:23;99491.16;;;-1.61;100.00
70206;BME280;57593;55.896;37.396;2022-11-20T02:33:57;99490.94;;;-1.60;100.00
70206;BME280;57593;55.896;37.396;2022-11-20T02:34:28;99496.63;;;-1.58;100.00
70206;BME280;57593;55.896;37.396;2022-11-20T02:35:09;99489.06;;;-1.65;100.00
70206;BME280;57593;55.896;37.396;2022-11-20T02:35:45;99494.06;;;-1.53;100.00
70206;BME280;57593;55.896;37.396;2022-11-20T02:36:16;99490.16;;;-1.60;100.00
70206;BME280;57593;55.896;37.396;2022-11-20T02:36:48;99494.25;;;-1.65;100.00
70206;BME280;57593;55.896;37.396;2022-11-20T02:37:20;99493.56;;;-1.55;100.00
70206;BME280;57593;55.896;37.396;2022-11-20T02:37:54;99488.38;;;-1.55;100.00
70206;BME280;57593;55.896;37.396;2022-11-20T02:38:25;99498.78;;;-1.50;100.00
70206;BME280;57593;55.896;37.396;2022-11-20T02:38:56;99500.59;;;-1.50;100.00
70206;BME280;57593;55.896;37.396;2022-11-20T02:39:27;99501.31;;;-1.55;100.00
70206;BME280;57593;55.896;37.396;2022-11-20T02:39:58;99497.22;;;-1.51;100.00
70206;BME280;57593;55.896;37.396;2022-11-20T02:40:29;99488.41;;;-1.50;100.00
70206;BME280;57593;55.896;37.396;2022-11-20T02:40:59;99501.03;;;-1.58;100.00
70206;BME280;57593;55.896;37.396;2022-11-20T02:41:36;99497.72;;;-1.54;100.00
70206;BME280;57593;55.896;37.396;2022-11-20T02:42:07;99495.09;;;-1.59;100.00
70206;BME280;57593;55.896;37.396;2022-11-20T02:42:37;99498.72;;;-1.55;100.00
70206;BME280;57593;55.896;37.396;2022-11-20T02:43:09;99500.34;;;-1.49;100.00
70206;BME280;57593;55.896;37.396;2022-11-20T02:43:40;99500.94;;;-1.41;100.00
70206;BME280;57593;55.896;37.396;2022-11-20T02:44:10;99496.28;;;-1.39;100.00
70206;BME280;57593;55.896;37.396;2022-11-20T02:44:41;99500.69;;;-1.40;100.00
70206;BME280;57593;55.896;37.396;2022-11-20T02:45:12;99496.91;;;-1.54;100.00
70206;BME280;57593;55.896;37.396;2022-11-20T02:45:42;99495.50;;;-1.67;100.00
70206;BME280;57593;55.896;37.396;2022-11-20T02:46:13;99497.41;;;-1.57;100.00
70206;BME280;57593;55.896;37.396;2022-11-20T02:46:44;99492.81;;;-1.50;100.00
70206;BME280;57593;55.896;37.396;2022-11-20T02:47:15;99497.47;;;-1.52;100.00
70206;BME280;57593;55.896;37.396;2022-11-20T02:47:45;99497.72;;;-1.54;100.00
70206;BME280;57593;55.896;37.396;2022-11-20T02:48:16;99499.97;;;-1.63;100.00
70206;BME280;57593;55.896;37.396;2022-11-20T02:48:47;99494.06;;;-1.53;100.00
70206;BME280;57593;55.896;37.396;2022-11-20T02:49:17;99494.53;;;-1.61;100.00
70206;BME280;57593;55.896;37.396;2022-11-20T02:49:48;99498.78;;;-1.50;100.00
70206;BME280;57593;55.896;37.396;2022-11-20T02:50:19;99485.47;;;-1.64;100.00
70206;BME280;57593;55.896;37.396;2022-11-20T02:50:50;99490.66;;;-1.64;100.00
70206;BME280;57593;55.896;37.396;2022-11-20T02:51:20;99495.22;;;-1.71;100.00
70206;BME280;57593;55.896;37.396;2022-11-20T02:51:51;99489.34;;;-1.61;100.00
70206;BME280;57593;55.896;37.396;2022-11-20T02:52:22;99503.53;;;-1.69;100.00
70206;BME280;57593;55.896;37.396;2022-11-20T02:52:53;99505.94;;;-1.62;100.00
70206;BME280;57593;55.896;37.396;2022-11-20T02:53:24;99494.03;;;-1.58;100.00
70206;BME280;57593;55.896;37.396;2022-11-20T02:53:54;99501.34;;;-1.50;100.00
70206;BME280;57593;55.896;37.396;2022-11-20T02:54:25;99504.78;;;-1.44;100.00